createdAt,value
2018-12-16T00:00:44.152Z,17.95
2018-12-16T00:03:12.437Z,10.20
2018-12-16T00:05:40.838Z,18.10
2018-12-16T00:08:09.375Z,15.98
2018-12-16T00:10:37.548Z,17.07
2018-12-16T00:13:05.783Z,11.68
2018-12-16T00:15:35.564Z,15.35
2018-12-16T00:18:03.760Z,14.90
2018-12-16T00:20:32.190Z,19.85
2018-12-16T00:23:00.496Z,16.55
2018-12-16T00:25:29.156Z,15.90
2018-12-16T00:27:58.141Z,17.85
2018-12-16T00:30:26.630Z,7.17
2018-12-16T00:32:55.062Z,17.07
2018-12-16T00:35:24.193Z,7.62
2018-12-16T00:37:52.843Z,8.20
2018-12-16T00:40:21.093Z,18.35
2018-12-16T00:42:49.594Z,16.10
2018-12-16T00:45:17.797Z,7.00
2018-12-16T00:47:47.525Z,11.83
2018-12-16T00:50:15.954Z,14.98
2018-12-16T00:52:44.183Z,12.05
2018-12-16T00:55:12.696Z,17.75
2018-12-16T00:57:40.846Z,16.37
2018-12-16T01:00:13.192Z,15.88
2018-12-16T01:02:42.226Z,12.00
2018-12-16T01:05:11.394Z,14.23
2018-12-16T01:07:39.721Z,16.65
2018-12-16T01:10:09.786Z,19.65
2018-12-16T01:12:37.954Z,14.63
2018-12-16T01:15:06.514Z,11.53
2018-12-16T01:17:34.781Z,15.63
2018-12-16T01:20:03.592Z,18.25
2018-12-16T01:22:32.197Z,15.53
2018-12-16T01:25:00.870Z,19.17
2018-12-16T01:27:29.442Z,18.23
2018-12-16T01:29:57.707Z,19.77
2018-12-16T01:32:27.765Z,24.92
2018-12-16T01:34:56.633Z,18.73
2018-12-16T01:37:25.955Z,16.10
2018-12-16T01:39:54.179Z,19.27
2018-12-16T01:42:22.359Z,15.10
2018-12-16T01:44:50.674Z,15.70
2018-12-16T01:47:19.210Z,18.55
2018-12-16T01:49:47.359Z,16.82
2018-12-16T01:52:15.698Z,19.12
2018-12-16T01:54:43.814Z,19.02
2018-12-16T01:57:12.298Z,19.25
2018-12-16T01:59:41.234Z,18.62
2018-12-16T02:02:09.470Z,17.85
2018-12-16T02:04:38.595Z,19.55
2018-12-16T02:07:06.871Z,18.30
2018-12-16T02:09:35.283Z,15.53
2018-12-16T02:12:04.327Z,17.30
2018-12-16T02:14:32.536Z,17.37
2018-12-16T02:17:02.150Z,16.62
2018-12-16T02:19:30.321Z,16.17
2018-12-16T02:21:58.782Z,15.90
2018-12-16T02:24:27.233Z,19.23
2018-12-16T02:26:55.790Z,19.30
2018-12-16T02:29:24.653Z,17.15
2018-12-16T02:31:52.748Z,17.05
2018-12-16T02:34:20.911Z,14.98
2018-12-16T02:36:49.026Z,16.95
2018-12-16T02:39:17.280Z,16.07
2018-12-16T02:41:45.693Z,17.55
2018-12-16T02:44:14.787Z,20.88
2018-12-16T02:46:43.774Z,17.45
2018-12-16T02:49:12.863Z,17.52
2018-12-16T02:51:42.087Z,19.02
2018-12-16T02:54:10.327Z,16.48
2018-12-16T02:56:38.571Z,15.15
2018-12-16T02:59:07.496Z,16.82
2018-12-16T03:01:36.559Z,14.78
2018-12-16T03:04:05.820Z,18.82
2018-12-16T03:06:33.902Z,17.50
2018-12-16T03:09:02.020Z,16.67
2018-12-16T03:11:30.803Z,15.48
2018-12-16T03:13:59.069Z,17.48
2018-12-16T03:16:27.473Z,17.55
2018-12-16T03:18:56.302Z,17.98
2018-12-16T03:21:24.789Z,17.90
2018-12-16T03:23:53.655Z,16.95
2018-12-16T03:26:22.962Z,15.60
2018-12-16T03:28:51.761Z,19.23
2018-12-16T03:33:53.776Z,18.57
2018-12-16T03:36:21.917Z,12.95
2018-12-16T03:38:50.353Z,20.57
2018-12-16T03:41:18.635Z,15.40
2018-12-16T03:43:46.758Z,15.20
2018-12-16T03:46:15.370Z,15.20
2018-12-16T03:48:44.024Z,13.88
2018-12-16T03:51:12.285Z,21.10
2018-12-16T03:53:40.577Z,17.98
2018-12-16T03:56:09.198Z,17.07
2018-12-16T03:58:43.897Z,16.17
2018-12-16T04:01:12.954Z,17.45
2018-12-16T04:03:41.234Z,16.95
2018-12-16T04:06:09.494Z,16.40
2018-12-16T04:08:37.599Z,13.32
2018-12-16T04:11:05.726Z,16.82
2018-12-16T04:13:33.930Z,14.07
2018-12-16T04:16:03.170Z,16.35
2018-12-16T04:18:31.450Z,13.65
2018-12-16T04:20:59.593Z,15.30
2018-12-16T04:23:36.334Z,15.43
2018-12-16T04:26:04.634Z,17.00
2018-12-16T04:28:32.877Z,17.98
2018-12-16T04:31:00.978Z,16.45
2018-12-16T04:33:29.232Z,18.77
2018-12-16T04:35:57.522Z,16.70
2018-12-16T04:38:26.154Z,20.92
2018-12-16T04:40:54.360Z,14.60
2018-12-16T04:43:23.019Z,16.57
2018-12-16T04:45:51.514Z,17.15
2018-12-16T04:48:19.628Z,19.25
2018-12-16T04:50:47.912Z,16.17
2018-12-16T04:53:16.665Z,17.00
2018-12-16T04:55:45.479Z,21.25
2018-12-16T04:58:13.556Z,17.10
2018-12-16T05:00:42.952Z,21.97
2018-12-16T05:03:11.604Z,20.40
2018-12-16T05:05:40.055Z,17.02
2018-12-16T05:08:08.169Z,18.67
2018-12-16T05:10:36.479Z,21.00
2018-12-16T05:13:04.761Z,18.00
2018-12-16T05:15:34.582Z,22.62
2018-12-16T05:18:02.868Z,24.00
2018-12-16T05:20:31.092Z,29.72
2018-12-16T05:22:59.733Z,20.95
2018-12-16T05:25:28.006Z,25.52
2018-12-16T05:27:56.577Z,30.92
2018-12-16T05:30:24.868Z,25.00
2018-12-16T05:32:53.264Z,27.42
2018-12-16T05:35:21.630Z,29.12
2018-12-16T05:37:50.070Z,33.45
2018-12-16T05:40:20.267Z,25.32
2018-12-16T05:42:49.126Z,25.37
2018-12-16T05:45:17.578Z,27.10
2018-12-16T05:47:46.211Z,23.80
2018-12-16T05:50:14.882Z,28.50
2018-12-16T05:52:43.366Z,29.00
2018-12-16T05:55:12.413Z,17.77
2018-12-16T05:57:40.973Z,30.43
2018-12-16T06:00:10.782Z,24.50
2018-12-16T06:02:39.204Z,27.75
2018-12-16T06:05:07.447Z,24.47
2018-12-16T06:07:38.610Z,20.88
2018-12-16T06:10:07.014Z,13.83
2018-12-16T06:12:35.435Z,26.70
2018-12-16T06:15:03.713Z,22.42
2018-12-16T06:17:31.924Z,29.72
2018-12-16T06:20:00.484Z,25.20
2018-12-16T06:22:28.597Z,27.87
2018-12-16T06:24:56.702Z,25.32
2018-12-16T06:27:25.342Z,32.95
2018-12-16T06:29:53.936Z,28.67
2018-12-16T06:32:22.112Z,25.35
2018-12-16T06:34:50.317Z,30.17
2018-12-16T06:37:18.656Z,25.32
2018-12-16T06:39:46.984Z,23.57
2018-12-16T06:42:15.145Z,30.50
2018-12-16T06:44:43.381Z,25.95
2018-12-16T06:47:13.374Z,30.08
2018-12-16T06:49:41.534Z,29.72
2018-12-16T06:52:12.283Z,30.15
2018-12-16T06:54:40.456Z,30.40
2018-12-16T06:57:08.692Z,29.50
2018-12-16T06:59:37.283Z,29.10
2018-12-16T07:02:05.596Z,27.73
2018-12-16T07:04:33.855Z,28.25
2018-12-16T07:07:02.073Z,27.30
2018-12-16T07:09:30.420Z,27.52
2018-12-16T07:11:59.142Z,23.02
2018-12-16T07:14:27.504Z,26.00
2018-12-16T07:16:56.116Z,27.32
2018-12-16T07:19:24.492Z,25.25
2018-12-16T07:21:53.613Z,28.83
2018-12-16T07:24:21.766Z,31.48
2018-12-16T07:26:50.893Z,27.32
2018-12-16T07:29:19.313Z,30.05
2018-12-16T07:31:47.838Z,23.20
2018-12-16T07:34:16.833Z,27.60
2018-12-16T07:36:45.178Z,27.98
2018-12-16T07:39:13.445Z,32.25
2018-12-16T07:41:42.473Z,28.27
2018-12-16T07:44:10.652Z,26.60
2018-12-16T07:46:39.193Z,28.92
2018-12-16T07:49:07.614Z,25.85
2018-12-16T07:51:36.004Z,29.23
2018-12-16T07:54:04.521Z,25.27
2018-12-16T07:56:32.780Z,27.52
2018-12-16T07:59:01.049Z,26.12
2018-12-16T08:01:30.041Z,26.55
2018-12-16T08:03:58.591Z,28.07
2018-12-16T08:06:26.931Z,26.42
2018-12-16T08:08:55.319Z,30.32
2018-12-16T08:11:24.477Z,24.55
2018-12-16T08:13:54.817Z,30.90
2018-12-16T08:16:23.696Z,28.65
2018-12-16T08:18:52.250Z,30.00
2018-12-16T08:21:20.626Z,32.70
2018-12-16T08:23:48.867Z,26.37
2018-12-16T08:26:17.230Z,28.15
2018-12-16T08:28:45.728Z,28.45
2018-12-16T08:31:13.992Z,29.02
2018-12-16T08:33:42.104Z,26.90
2018-12-16T08:36:10.373Z,32.17
2018-12-16T08:38:39.021Z,29.23
2018-12-16T08:41:07.503Z,27.17
2018-12-16T08:43:36.017Z,30.85
2018-12-16T08:46:04.831Z,23.80
2018-12-16T08:48:33.028Z,25.68
2018-12-16T08:51:01.795Z,26.40
2018-12-16T08:53:30.157Z,25.08
2018-12-16T08:55:58.396Z,30.23
2018-12-16T08:58:27.634Z,29.40
2018-12-16T09:00:56.334Z,25.80
2018-12-16T09:03:25.051Z,24.90
2018-12-16T09:05:54.007Z,29.65
2018-12-16T09:08:22.223Z,27.87
2018-12-16T09:10:50.422Z,26.60
2018-12-16T09:13:18.787Z,27.73
2018-12-16T09:15:47.190Z,28.92
2018-12-16T09:18:15.581Z,27.40
2018-12-16T09:20:44.522Z,29.20
2018-12-16T09:23:12.941Z,26.73
2018-12-16T09:25:41.134Z,28.10
2018-12-16T09:28:09.756Z,23.60
2018-12-16T09:30:37.824Z,25.77
2018-12-16T09:33:06.920Z,34.98
2018-12-16T09:35:36.061Z,28.23
2018-12-16T09:38:04.342Z,26.93
2018-12-16T09:40:33.782Z,27.05
2018-12-16T09:43:02.081Z,30.25
2018-12-16T09:45:30.806Z,34.73
2018-12-16T09:47:59.145Z,28.55
2018-12-16T09:50:27.592Z,27.20
2018-12-16T09:52:55.680Z,26.82
2018-12-16T09:55:23.958Z,22.93
2018-12-16T09:57:52.289Z,27.73
2018-12-16T10:00:20.869Z,26.97
2018-12-16T10:02:49.055Z,29.05
2018-12-16T10:05:17.384Z,30.62
2018-12-16T10:07:46.384Z,32.35
2018-12-16T10:10:14.596Z,40.95
2018-12-16T10:12:43.032Z,44.83
2018-12-16T10:15:11.353Z,98.92
2018-12-16T10:17:39.661Z,35.00
2018-12-16T10:20:09.688Z,24.25
2018-12-16T10:22:37.876Z,22.93
2018-12-16T10:25:06.126Z,25.50
2018-12-16T10:27:34.602Z,28.62
2018-12-16T10:30:02.882Z,28.27
2018-12-16T10:32:32.472Z,29.98
2018-12-16T10:35:01.363Z,22.37
2018-12-16T10:37:29.873Z,28.62
2018-12-16T10:39:58.058Z,32.40
2018-12-16T10:42:26.491Z,29.32
2018-12-16T10:44:54.789Z,28.87
2018-12-16T10:47:23.512Z,29.52
2018-12-16T10:49:52.085Z,32.05
2018-12-16T10:52:20.408Z,33.95
2018-12-16T10:54:49.339Z,31.95
2018-12-16T10:57:17.644Z,32.25
2018-12-16T10:59:46.277Z,25.75
2018-12-16T11:02:14.511Z,37.13
2018-12-16T11:04:42.776Z,30.17
2018-12-16T11:07:11.853Z,39.03
2018-12-16T11:09:40.260Z,33.40
2018-12-16T11:12:08.587Z,32.80
2018-12-16T11:14:36.822Z,32.30
2018-12-16T11:17:05.124Z,33.85
2018-12-16T11:19:33.330Z,34.92
2018-12-16T11:22:01.682Z,35.83
2018-12-16T11:24:29.819Z,38.53
2018-12-16T11:26:59.069Z,31.70
2018-12-16T11:29:27.348Z,35.78
2018-12-16T11:31:55.740Z,36.23
2018-12-16T11:34:24.785Z,31.85
2018-12-16T11:36:53.110Z,36.53
2018-12-16T11:39:21.484Z,34.60
2018-12-16T11:41:49.693Z,40.78
2018-12-16T11:44:18.544Z,36.53
2018-12-16T11:46:47.470Z,35.28
2018-12-16T11:49:15.689Z,37.20
2018-12-16T11:51:45.525Z,29.87
2018-12-16T11:54:13.760Z,27.45
2018-12-16T11:56:42.114Z,32.80
2018-12-16T11:59:12.160Z,32.15
2018-12-16T12:01:40.318Z,31.30
2018-12-16T12:04:08.652Z,40.78
2018-12-16T12:06:36.866Z,38.42
2018-12-16T12:09:05.968Z,38.00
2018-12-16T12:11:34.339Z,31.95
2018-12-16T12:14:02.594Z,33.23
2018-12-16T12:16:30.829Z,34.00
2018-12-16T12:19:00.981Z,37.38
2018-12-16T12:21:29.383Z,31.10
2018-12-16T12:23:58.582Z,36.85
2018-12-16T12:26:26.852Z,34.00
2018-12-16T12:28:55.448Z,32.33
2018-12-16T12:31:24.118Z,32.05
2018-12-16T12:33:52.398Z,32.93
2018-12-16T12:36:21.433Z,34.78
2018-12-16T12:38:49.651Z,38.48
2018-12-16T12:41:18.033Z,40.88
2018-12-16T12:43:46.171Z,37.23
2018-12-16T12:46:14.524Z,36.10
2018-12-16T12:48:43.699Z,31.82
2018-12-16T12:51:11.895Z,39.08
2018-12-16T12:53:41.478Z,40.05
2018-12-16T12:56:09.861Z,29.82
2018-12-16T12:58:38.550Z,45.88
2018-12-16T13:01:06.963Z,36.60
2018-12-16T13:03:35.122Z,33.25
2018-12-16T13:06:03.457Z,39.00
2018-12-16T13:08:31.590Z,44.83
2018-12-16T13:10:59.802Z,27.87
2018-12-16T13:13:27.957Z,29.85
2018-12-16T13:15:56.223Z,41.35
2018-12-16T13:18:25.191Z,34.03
2018-12-16T13:20:53.773Z,42.15
2018-12-16T13:23:23.115Z,30.30
2018-12-16T13:26:04.844Z,42.43
2018-12-16T13:28:33.751Z,33.13
2018-12-16T13:31:02.244Z,38.75
2018-12-16T13:33:30.461Z,44.05
2018-12-16T13:35:59.066Z,47.70
2018-12-16T13:38:27.595Z,37.15
2018-12-16T13:40:55.782Z,41.55
2018-12-16T13:43:24.090Z,42.17
2018-12-16T13:45:52.430Z,36.90
2018-12-16T13:48:20.742Z,45.00
2018-12-16T13:50:48.894Z,42.78
2018-12-16T13:53:17.304Z,37.95
2018-12-16T13:55:47.329Z,32.80
2018-12-16T13:58:16.387Z,49.25
2018-12-16T14:00:45.137Z,38.55
2018-12-16T14:03:13.462Z,38.17
2018-12-16T14:05:46.642Z,45.15
2018-12-16T14:08:13.975Z,46.48
2018-12-16T14:10:42.170Z,47.38
2018-12-16T14:13:10.427Z,47.48
2018-12-16T14:15:38.648Z,42.05
2018-12-16T14:18:07.907Z,55.25
2018-12-16T14:20:36.249Z,47.10
2018-12-16T14:23:04.891Z,59.65
2018-12-16T14:25:33.012Z,50.95
2018-12-16T14:28:01.627Z,54.03
2018-12-16T14:30:30.418Z,47.58
2018-12-16T14:32:58.926Z,52.80
2018-12-16T14:35:27.208Z,53.45
2018-12-16T14:37:56.790Z,55.83
2018-12-16T14:40:25.571Z,51.55
2018-12-16T14:42:54.879Z,47.20
2018-12-16T14:45:23.272Z,66.60
2018-12-16T14:47:51.645Z,62.17
2018-12-16T14:50:19.983Z,52.08
2018-12-16T14:52:48.479Z,45.95
2018-12-16T14:55:16.966Z,53.42
2018-12-16T14:57:45.212Z,46.33
2018-12-16T15:00:14.553Z,62.67
2018-12-16T15:02:42.876Z,45.25
2018-12-16T15:05:11.385Z,53.40
2018-12-16T15:07:39.888Z,49.15
2018-12-16T15:10:09.941Z,52.27
2018-12-16T15:12:38.235Z,52.85
2018-12-16T15:15:08.332Z,57.33
2018-12-16T15:17:42.792Z,63.98
2018-12-16T15:20:08.265Z,52.15
2018-12-16T15:22:36.522Z,44.40
2018-12-16T15:25:05.530Z,54.73
2018-12-16T15:27:34.555Z,54.58
2018-12-16T15:30:03.381Z,64.10
2018-12-16T15:32:32.181Z,54.00
2018-12-16T15:35:00.447Z,56.77
2018-12-16T15:37:29.278Z,54.73
2018-12-16T15:39:58.082Z,46.48
2018-12-16T15:42:26.342Z,55.92
2018-12-16T15:44:54.485Z,48.52
2018-12-16T15:47:22.651Z,46.25
2018-12-16T15:49:50.828Z,55.60
2018-12-16T15:52:19.356Z,47.67
2018-12-16T15:54:48.214Z,46.75
2018-12-16T15:57:16.553Z,60.65
2018-12-16T15:59:45.674Z,51.33
2018-12-16T16:02:13.960Z,64.95
2018-12-16T16:04:42.267Z,60.48
2018-12-16T16:07:10.479Z,66.80
2018-12-16T16:09:38.592Z,59.55
2018-12-16T16:12:06.911Z,65.57
2018-12-16T16:14:35.059Z,66.35
2018-12-16T16:17:03.513Z,62.15
2018-12-16T16:19:31.974Z,77.03
2018-12-16T16:22:01.585Z,61.68
2018-12-16T16:24:29.710Z,51.68
2018-12-16T16:26:58.453Z,51.70
2018-12-16T16:29:27.083Z,52.78
2018-12-16T16:31:55.211Z,55.48
2018-12-16T16:34:23.441Z,52.73
2018-12-16T16:36:51.600Z,57.78
2018-12-16T16:39:20.985Z,56.00
2018-12-16T16:41:50.193Z,52.67
2018-12-16T16:44:18.389Z,65.40
2018-12-16T16:46:46.601Z,77.08
2018-12-16T16:49:15.069Z,61.90
2018-12-16T16:51:43.174Z,52.70
2018-12-16T16:54:12.062Z,53.40
2018-12-16T16:56:41.122Z,68.67
2018-12-16T16:59:10.431Z,52.75
2018-12-16T17:01:38.807Z,68.33
2018-12-16T17:04:07.374Z,63.70
2018-12-16T17:06:36.105Z,67.00
2018-12-16T17:09:07.398Z,51.65
2018-12-16T17:11:35.694Z,61.25
2018-12-16T17:14:04.227Z,64.17
2018-12-16T17:16:33.106Z,72.55
2018-12-16T17:19:01.866Z,44.48
2018-12-16T17:21:30.788Z,58.13
2018-12-16T17:23:59.889Z,51.13
2018-12-16T17:26:30.195Z,58.70
2018-12-16T17:28:58.786Z,55.70
2018-12-16T17:31:27.006Z,52.40
2018-12-16T17:33:56.454Z,49.65
2018-12-16T17:36:25.453Z,59.67
2018-12-16T17:38:54.717Z,53.60
2018-12-16T17:41:23.001Z,61.65
2018-12-16T17:43:51.202Z,61.28
2018-12-16T17:46:19.337Z,76.77
2018-12-16T17:48:47.747Z,70.35
2018-12-16T17:51:17.350Z,45.10
2018-12-16T17:53:45.503Z,48.70
2018-12-16T17:56:13.755Z,99.92
2018-12-16T17:58:42.108Z,58.17
2018-12-16T18:01:11.186Z,52.95
2018-12-16T18:03:39.653Z,54.85
2018-12-16T18:06:07.953Z,57.25
2018-12-16T18:08:36.331Z,52.00
2018-12-16T18:11:04.489Z,56.92
2018-12-16T18:13:32.791Z,60.92
2018-12-16T18:16:01.362Z,53.73
2018-12-16T18:18:29.560Z,55.60
2018-12-16T18:20:57.751Z,64.05
2018-12-16T18:23:29.674Z,99.37
2018-12-16T18:25:56.720Z,137.32
2018-12-16T18:28:26.005Z,56.58
2018-12-16T18:30:54.244Z,50.75
2018-12-16T18:33:22.557Z,54.60
2018-12-16T18:35:51.162Z,53.75
2018-12-16T18:38:19.515Z,56.98
2018-12-16T18:40:47.969Z,51.88
2018-12-16T18:43:16.111Z,53.25
2018-12-16T18:45:44.630Z,66.50
2018-12-16T18:48:13.934Z,50.55
2018-12-16T18:50:43.016Z,51.83
2018-12-16T18:53:11.229Z,53.38
2018-12-16T18:55:39.486Z,55.50
2018-12-16T18:58:08.602Z,48.95
2018-12-16T19:00:36.824Z,51.00
2018-12-16T19:03:04.959Z,49.08
2018-12-16T19:05:33.134Z,43.00
2018-12-16T19:08:01.290Z,48.45
2018-12-16T19:10:30.481Z,49.58
2018-12-16T19:12:58.702Z,51.40
2018-12-16T19:15:27.666Z,63.20
2018-12-16T19:17:55.965Z,60.60
2018-12-16T19:20:24.860Z,67.97
2018-12-16T19:22:53.049Z,61.25
2018-12-16T19:25:21.232Z,65.28
2018-12-16T19:27:55.349Z,60.15
2018-12-16T19:30:23.567Z,52.33
2018-12-16T19:32:51.728Z,64.42
2018-12-16T19:35:21.279Z,61.90
2018-12-16T19:37:49.954Z,61.02
2018-12-16T19:40:18.360Z,57.30
2018-12-16T19:42:46.533Z,64.07
2018-12-16T19:45:14.741Z,63.90
2018-12-16T19:47:49.529Z,64.65
2018-12-16T19:50:13.933Z,51.58
2018-12-16T19:52:42.131Z,65.22
2018-12-16T19:55:10.862Z,56.30
2018-12-16T19:57:39.175Z,62.98
2018-12-16T20:00:08.755Z,66.62
2018-12-16T20:02:37.321Z,68.07
2018-12-16T20:05:09.115Z,92.65
2018-12-16T20:07:37.216Z,82.55
2018-12-16T20:10:05.923Z,80.25
2018-12-16T20:12:34.802Z,79.45
2018-12-16T20:15:03.025Z,85.70
2018-12-16T20:17:32.134Z,82.53
2018-12-16T20:20:00.456Z,64.25
2018-12-16T20:22:28.675Z,64.05
2018-12-16T20:24:57.886Z,69.25
2018-12-16T20:27:25.999Z,59.23
2018-12-16T20:29:55.363Z,65.78
2018-12-16T20:32:23.570Z,63.87
2018-12-16T20:34:52.443Z,71.25
2018-12-16T20:37:21.092Z,69.72
2018-12-16T20:39:49.304Z,83.82
2018-12-16T20:42:17.412Z,74.55
2018-12-16T20:44:46.453Z,90.28
2018-12-16T20:47:14.574Z,82.57
2018-12-16T20:49:43.256Z,77.12
2018-12-16T20:52:11.354Z,94.17
2018-12-16T20:54:39.469Z,89.70
2018-12-16T20:57:07.724Z,76.82
2018-12-16T20:59:37.186Z,86.12
2018-12-16T21:02:05.624Z,66.47
2018-12-16T21:04:33.762Z,104.32
2018-12-16T21:07:02.114Z,92.70
2018-12-16T21:09:30.306Z,88.70
2018-12-16T21:12:00.927Z,85.85
2018-12-16T21:14:35.017Z,70.95
2018-12-16T21:17:08.886Z,75.03
2018-12-16T21:19:37.155Z,64.80
2018-12-16T21:22:10.687Z,77.15
2018-12-16T21:24:39.198Z,114.80
2018-12-16T21:27:08.118Z,99.80
2018-12-16T21:29:36.336Z,121.28
2018-12-16T21:32:07.407Z,98.40
2018-12-16T21:34:35.805Z,77.05
2018-12-16T21:37:04.142Z,76.67
2018-12-16T21:39:32.884Z,105.83
2018-12-16T21:42:01.038Z,95.70
2018-12-16T21:44:29.171Z,76.65
2018-12-16T21:46:57.403Z,74.65
2018-12-16T21:49:26.173Z,81.80
2018-12-16T21:51:54.553Z,75.52
2018-12-16T21:54:22.683Z,76.60
2018-12-16T21:56:51.005Z,94.25
2018-12-16T21:59:19.501Z,100.02
2018-12-16T22:01:47.864Z,84.55
2018-12-16T22:04:15.979Z,76.42
2018-12-16T22:06:44.170Z,87.97
2018-12-16T22:09:13.049Z,86.00
2018-12-16T22:11:41.200Z,70.42
2018-12-16T22:14:09.931Z,95.67
2018-12-16T22:16:38.934Z,102.80
2018-12-16T22:19:07.762Z,113.37
2018-12-16T22:21:36.094Z,121.07
2018-12-16T22:24:04.342Z,105.95
2018-12-16T22:26:32.582Z,147.35
2018-12-16T22:29:01.750Z,108.80
2018-12-16T22:31:30.031Z,94.52
2018-12-16T22:33:58.674Z,150.35
2018-12-16T22:36:28.271Z,131.15
2018-12-16T22:38:56.546Z,109.90
2018-12-16T22:41:24.720Z,85.35
2018-12-16T22:43:53.277Z,101.27
2018-12-16T22:46:22.130Z,104.32
2018-12-16T22:48:50.541Z,114.90
2018-12-16T22:51:19.242Z,145.97
2018-12-16T22:53:47.449Z,96.78
2018-12-16T22:56:15.678Z,106.15
2018-12-16T22:58:43.978Z,137.92
2018-12-16T23:01:17.678Z,141.45
2018-12-16T23:03:46.097Z,115.65
2018-12-16T23:06:15.349Z,97.25
2018-12-16T23:08:43.850Z,112.83
2018-12-16T23:11:12.423Z,99.42
2018-12-16T23:13:41.354Z,97.55
2018-12-16T23:16:09.630Z,151.07
2018-12-16T23:18:37.818Z,160.03
2018-12-16T23:21:06.995Z,132.40
2018-12-16T23:23:35.405Z,124.38
2018-12-16T23:26:03.941Z,154.30
2018-12-16T23:28:32.840Z,114.35
2018-12-16T23:31:01.305Z,142.50
2018-12-16T23:33:31.443Z,146.47
2018-12-16T23:35:59.704Z,123.35
2018-12-16T23:38:28.008Z,149.50
2018-12-16T23:40:56.589Z,150.12
2018-12-16T23:43:24.870Z,200.50
2018-12-16T23:45:53.165Z,142.75
2018-12-16T23:48:21.798Z,155.48
2018-12-16T23:50:51.559Z,152.10
2018-12-16T23:53:20.017Z,141.05
2018-12-16T23:55:48.427Z,125.20
2018-12-16T23:58:18.237Z,145.60
